Time;durP1;ratioP1;P1;durP2;ratioP2;P2;SDS_P1;SDS_P2;PMS_P1;PMS_P2;Temp;Humidity;BMP_temperature;BMP_pressure;BME280_temperature;BME280_humidity;BME280_pressure;Samples;Min_cycle;Max_cycle;Signal;HPM_P1;HPM_P2
2022/07/07 00:00:47;;;;;;;7.75;4.20;;;23.20;63.60;;;;;;1888419;76;21048;-63
2022/07/07 00:03:17;;;;;;;10.82;4.65;;;23.20;63.90;;;;;;1888424;76;21025;-63
2022/07/07 00:05:46;;;;;;;14.35;5.08;;;23.20;64.10;;;;;;1888406;74;21138;-63
2022/07/07 00:08:16;;;;;;;14.83;4.60;;;23.20;64.00;;;;;;1888389;75;21052;-64
2022/07/07 00:10:45;;;;;;;15.53;4.20;;;23.10;64.20;;;;;;1888340;75;21090;-64
2022/07/07 00:13:14;;;;;;;13.60;5.70;;;23.10;64.50;;;;;;1888469;76;21126;-64
2022/07/07 00:15:45;;;;;;;11.68;4.28;;;23.10;64.60;;;;;;1888356;75;21134;-64
2022/07/07 00:18:15;;;;;;;10.05;4.17;;;23.10;64.70;;;;;;1888348;75;21069;-64
2022/07/07 00:20:44;;;;;;;11.63;4.10;;;23.10;64.80;;;;;;1888415;75;21024;-64
2022/07/07 00:23:13;;;;;;;11.60;4.05;;;23.10;64.40;;;;;;1888389;76;21052;-63
2022/07/07 00:25:43;;;;;;;15.45;5.05;;;23.10;64.60;;;;;;1888372;75;21098;-64
2022/07/07 00:28:12;;;;;;;18.23;4.85;;;23.00;64.50;;;;;;1888447;76;21016;-64
2022/07/07 00:30:42;;;;;;;13.93;5.08;;;23.00;64.50;;;;;;1888339;75;21028;-64
2022/07/07 00:33:11;;;;;;;21.15;5.47;;;22.90;65.10;;;;;;1888295;75;21102;-64
2022/07/07 00:35:41;;;;;;;15.30;5.33;;;22.90;64.40;;;;;;1888332;75;21024;-63
2022/07/07 00:38:11;;;;;;;10.20;4.83;;;22.80;64.40;;;;;;1888357;76;20992;-64
2022/07/07 00:40:40;;;;;;;10.82;4.35;;;22.80;65.00;;;;;;1888469;75;21048;-64
2022/07/07 00:43:10;;;;;;;13.53;4.83;;;22.70;65.20;;;;;;1888407;75;21114;-64
2022/07/07 00:45:40;;;;;;;13.20;4.90;;;22.70;65.20;;;;;;1888331;76;21024;-64
2022/07/07 00:48:09;;;;;;;14.47;5.60;;;22.70;65.00;;;;;;1888456;75;21017;-64
2022/07/07 00:50:39;;;;;;;12.55;3.98;;;22.60;65.00;;;;;;1888437;75;21439;-64
2022/07/07 00:53:08;;;;;;;13.85;5.78;;;22.60;65.20;;;;;;1888552;75;21115;-64
2022/07/07 00:55:38;;;;;;;9.70;4.40;;;22.50;65.40;;;;;;1888450;75;21029;-64
2022/07/07 00:58:08;;;;;;;15.98;4.78;;;22.40;65.70;;;;;;1888548;75;21102;-63
2022/07/07 01:00:37;;;;;;;12.23;4.22;;;22.40;65.70;;;;;;1888442;75;21025;-63
2022/07/07 01:03:07;;;;;;;9.53;4.50;;;22.30;66.00;;;;;;1888568;75;21028;-63
2022/07/07 01:05:37;;;;;;;9.20;4.70;;;22.30;66.40;;;;;;1888513;76;21008;-63
2022/07/07 01:08:08;;;;;;;8.80;4.22;;;22.30;66.40;;;;;;1890597;74;21036;-63
2022/07/07 01:10:37;;;;;;;14.25;4.75;;;22.30;66.30;;;;;;1890922;74;21078;-63
2022/07/07 01:13:07;;;;;;;12.50;5.35;;;22.30;66.30;;;;;;1890994;75;21447;-63
2022/07/07 01:15:36;;;;;;;10.30;3.90;;;22.30;66.50;;;;;;1890952;75;21071;-63
2022/07/07 01:18:06;;;;;;;13.10;4.35;;;22.20;66.50;;;;;;1891019;75;21098;-63
2022/07/07 01:20:37;;;;;;;11.10;4.60;;;22.20;66.80;;;;;;1890949;75;21004;-63
2022/07/07 01:23:07;;;;;;;13.60;4.28;;;22.10;67.10;;;;;;1890872;75;21028;-63
2022/07/07 01:25:36;;;;;;;9.85;4.15;;;22.10;67.40;;;;;;1891056;75;21012;-63
2022/07/07 01:28:06;;;;;;;10.15;4.40;;;22.10;67.40;;;;;;1890914;75;21020;-63
2022/07/07 01:30:35;;;;;;;6.83;3.55;;;22.20;67.50;;;;;;1890978;76;21106;-63
2022/07/07 01:33:05;;;;;;;22.85;4.55;;;22.20;67.70;;;;;;1890975;74;21157;-64
2022/07/07 01:35:34;;;;;;;13.75;4.60;;;22.20;67.80;;;;;;1890912;75;21073;-63
2022/07/07 01:38:04;;;;;;;9.18;3.83;;;22.20;67.70;;;;;;1890979;75;21414;-63
2022/07/07 01:40:33;;;;;;;7.97;4.40;;;22.20;67.70;;;;;;1890916;76;21086;-63
2022/07/07 01:43:03;;;;;;;9.35;4.17;;;22.20;67.70;;;;;;1890903;76;21020;-63
2022/07/07 01:45:32;;;;;;;14.70;4.50;;;22.20;68.00;;;;;;1890968;76;21056;-63
2022/07/07 01:48:02;;;;;;;11.28;5.20;;;22.20;68.30;;;;;;1890880;75;21032;-63
2022/07/07 01:50:31;;;;;;;9.20;4.10;;;22.20;68.10;;;;;;1890951;76;21122;-63
2022/07/07 01:53:01;;;;;;;12.05;5.08;;;22.20;68.10;;;;;;1890870;75;21024;-63
2022/07/07 01:55:30;;;;;;;10.75;4.90;;;22.30;67.80;;;;;;1890905;75;21016;-63
2022/07/07 01:57:59;;;;;;;11.38;4.42;;;22.20;67.60;;;;;;1890976;74;21102;-63
2022/07/07 02:00:28;;;;;;;10.55;4.65;;;22.20;67.80;;;;;;1890834;75;21008;-63
2022/07/07 02:02:58;;;;;;;9.15;4.72;;;22.20;67.60;;;;;;1890870;75;21052;-63
2022/07/07 02:05:27;;;;;;;16.23;4.85;;;22.10;67.60;;;;;;1891048;75;20992;-63
2022/07/07 02:07:57;;;;;;;11.63;4.92;;;22.10;67.70;;;;;;1889458;74;21063;-63
2022/07/07 02:13:14;;;;;;;8.83;4.72;;;21.90;67.80;;;;;;1888502;75;21016;-63
2022/07/07 02:15:43;;;;;;;7.87;3.92;;;21.90;68.20;;;;;;1888438;76;21024;-64
2022/07/07 02:18:13;;;;;;;9.85;3.87;;;21.90;68.60;;;;;;1888389;75;21056;-63
2022/07/07 02:20:42;;;;;;;9.38;4.33;;;21.90;68.70;;;;;;1888519;76;21021;-63
2022/07/07 02:23:12;;;;;;;8.73;4.55;;;21.90;68.90;;;;;;1888491;76;21020;-63
2022/07/07 02:25:41;;;;;;;11.43;4.17;;;22.00;68.90;;;;;;1888503;75;21024;-63
2022/07/07 02:28:11;;;;;;;16.42;6.78;;;22.10;69.00;;;;;;1888526;76;21008;-63
2022/07/07 02:30:40;;;;;;;9.18;4.37;;;22.10;68.80;;;;;;1888457;75;21036;-63
2022/07/07 02:33:10;;;;;;;17.67;5.67;;;22.20;68.60;;;;;;1888402;76;21094;-63
2022/07/07 02:35:39;;;;;;;15.70;5.85;;;22.20;68.20;;;;;;1888431;76;21048;-63
2022/07/07 02:38:08;;;;;;;17.95;5.58;;;22.10;67.90;;;;;;1888323;75;21044;-63
2022/07/07 02:40:38;;;;;;;10.65;5.37;;;22.10;67.90;;;;;;1888413;75;21024;-63
2022/07/07 02:43:07;;;;;;;12.33;4.70;;;22.10;68.10;;;;;;1888379;75;21094;-63
2022/07/07 02:45:37;;;;;;;8.50;4.40;;;22.10;68.40;;;;;;1888440;76;21094;-63
2022/07/07 02:48:07;;;;;;;13.30;5.12;;;22.20;68.50;;;;;;1888394;75;21001;-63
2022/07/07 02:50:36;;;;;;;18.77;5.65;;;22.30;68.40;;;;;;1888398;75;21052;-63
2022/07/07 02:53:06;;;;;;;9.40;4.67;;;22.40;68.30;;;;;;1888361;75;21114;-63
2022/07/07 02:55:36;;;;;;;12.95;5.50;;;22.40;67.70;;;;;;1888440;76;21032;-63
2022/07/07 02:58:07;;;;;;;12.82;4.75;;;22.50;67.20;;;;;;1888462;76;21021;-63
2022/07/07 03:00:37;;;;;;;10.23;5.00;;;22.50;67.20;;;;;;1888423;76;21071;-63
2022/07/07 03:03:08;;;;;;;15.25;5.67;;;22.40;67.40;;;;;;1888595;75;21028;-63
2022/07/07 03:05:37;;;;;;;23.10;5.97;;;22.40;67.30;;;;;;1888442;76;21024;-63
2022/07/07 03:08:07;;;;;;;9.23;4.60;;;22.40;67.30;;;;;;1889323;74;21063;-63
2022/07/07 03:10:37;;;;;;;12.50;5.97;;;22.50;67.20;;;;;;1890895;75;21034;-64
2022/07/07 03:13:06;;;;;;;10.58;4.72;;;22.60;67.10;;;;;;1890777;76;21012;-64
2022/07/07 03:15:35;;;;;;;17.80;5.42;;;22.60;67.10;;;;;;1891007;75;21138;-64
2022/07/07 03:18:05;;;;;;;18.27;5.95;;;22.70;66.80;;;;;;1890929;75;21113;-63
2022/07/07 03:20:35;;;;;;;20.15;5.55;;;22.70;66.70;;;;;;1890947;75;21071;-63
2022/07/07 03:23:05;;;;;;;15.90;5.20;;;22.90;66.70;;;;;;1890833;74;21108;-63
2022/07/07 03:25:35;;;;;;;15.03;5.37;;;22.90;66.40;;;;;;1890869;76;21059;-63
2022/07/07 03:28:04;;;;;;;21.73;6.17;;;23.00;66.20;;;;;;1890794;75;21001;-63
2022/07/07 03:30:33;;;;;;;19.32;5.97;;;23.10;65.90;;;;;;1890981;75;21201;-63
2022/07/07 03:33:04;;;;;;;14.20;5.50;;;23.20;65.60;;;;;;1890782;75;21036;-63
2022/07/07 03:35:33;;;;;;;15.53;5.30;;;23.30;65.40;;;;;;1890883;75;21016;-63
2022/07/07 03:38:02;;;;;;;15.75;5.97;;;23.40;65.20;;;;;;1890810;75;21032;-63
2022/07/07 03:40:32;;;;;;;20.48;5.87;;;23.40;64.70;;;;;;1890924;75;21117;-63
2022/07/07 03:43:01;;;;;;;16.48;4.95;;;23.50;64.40;;;;;;1890886;76;21036;-63
2022/07/07 03:45:31;;;;;;;19.60;5.92;;;23.60;64.30;;;;;;1890962;75;21040;-63
2022/07/07 03:48:00;;;;;;;17.95;5.83;;;23.70;64.10;;;;;;1890967;75;21079;-63
2022/07/07 03:50:30;;;;;;;18.35;5.70;;;23.70;64.00;;;;;;1890961;76;21032;-63
2022/07/07 03:52:59;;;;;;;13.53;5.42;;;23.80;63.90;;;;;;1890813;76;21089;-63
2022/07/07 03:55:28;;;;;;;22.20;5.33;;;23.80;63.50;;;;;;1890926;74;21450;-63
2022/07/07 03:57:58;;;;;;;18.92;4.78;;;23.80;63.20;;;;;;1890908;75;20992;-63
2022/07/07 04:00:27;;;;;;;26.17;5.65;;;23.90;62.70;;;;;;1890980;76;21032;-63
2022/07/07 04:02:56;;;;;;;17.52;5.22;;;23.90;62.60;;;;;;1891077;76;21075;-63
2022/07/07 04:05:26;;;;;;;19.77;5.22;;;23.90;62.50;;;;;;1890909;76;21020;-64
2022/07/07 04:07:55;;;;;;;14.73;5.10;;;24.10;61.60;;;;;;1890584;74;21107;-64
2022/07/07 04:10:25;;;;;;;19.48;6.10;;;24.10;61.10;;;;;;1888359;75;21099;-64
2022/07/07 04:12:54;;;;;;;22.37;5.12;;;24.10;61.00;;;;;;1888397;75;21028;-64
2022/07/07 04:15:24;;;;;;;15.32;5.00;;;24.10;61.00;;;;;;1888336;75;21004;-65
2022/07/07 04:17:53;;;;;;;14.05;4.20;;;24.20;60.20;;;;;;1888347;75;21094;-64
2022/07/07 04:20:22;;;;;;;20.37;5.15;;;24.30;60.30;;;;;;1888402;75;21115;-64
2022/07/07 04:22:52;;;;;;;20.23;5.97;;;24.30;59.80;;;;;;1888460;76;21164;-64
2022/07/07 04:25:21;;;;;;;14.90;5.50;;;24.40;59.80;;;;;;1888507;75;21036;-64
2022/07/07 04:27:51;;;;;;;13.98;4.53;;;24.50;59.90;;;;;;1888612;76;21028;-64
2022/07/07 04:30:21;;;;;;;30.20;4.83;;;24.60;59.50;;;;;;1888412;75;21052;-64
2022/07/07 04:35:40;;;;;;;14.20;3.90;;;24.70;58.10;;;;;;1916157;75;21053;-63
2022/07/07 04:38:09;;;;;;;36.53;8.30;;;24.70;57.70;;;;;;1916165;75;21091;-64
2022/07/07 04:40:38;;;;;;;38.88;8.43;;;24.70;57.80;;;;;;1916268;75;21511;-64
2022/07/07 04:43:08;;;;;;;21.45;4.85;;;24.70;57.70;;;;;;1916093;75;21022;-64
2022/07/07 04:45:37;;;;;;;16.52;5.17;;;24.80;57.60;;;;;;1916269;74;21018;-64
2022/07/07 04:48:07;;;;;;;16.15;4.40;;;24.90;57.40;;;;;;1916145;75;21010;-64
2022/07/07 04:50:36;;;;;;;9.25;4.05;;;25.10;56.80;;;;;;1916132;75;20998;-64
2022/07/07 04:53:05;;;;;;;14.95;5.78;;;25.10;56.00;;;;;;1916215;75;21018;-65
2022/07/07 04:55:35;;;;;;;11.70;4.40;;;25.20;56.10;;;;;;1916185;75;21030;-64
2022/07/07 04:58:04;;;;;;;10.93;4.30;;;25.20;55.60;;;;;;1916005;75;21018;-64
2022/07/07 05:00:34;;;;;;;11.12;4.35;;;25.30;55.40;;;;;;1916296;75;21524;-64
2022/07/07 05:03:03;;;;;;;20.48;4.55;;;25.30;54.90;;;;;;1916302;75;21437;-64
2022/07/07 05:05:32;;;;;;;16.60;4.20;;;25.30;54.80;;;;;;1916121;75;21022;-64
2022/07/07 05:08:02;;;;;;;14.80;4.35;;;25.40;54.80;;;;;;1916034;74;21017;-63
2022/07/07 05:10:31;;;;;;;11.48;3.30;;;25.50;54.60;;;;;;1916088;75;21002;-63
2022/07/07 05:13:00;;;;;;;13.68;4.35;;;25.60;54.40;;;;;;1916040;74;21034;-63
2022/07/07 05:15:30;;;;;;;12.23;4.30;;;25.70;54.20;;;;;;1916098;75;21038;-63
2022/07/07 05:17:59;;;;;;;15.50;4.60;;;25.70;54.00;;;;;;1916278;74;21096;-63
2022/07/07 05:20:29;;;;;;;6.83;4.08;;;25.80;53.70;;;;;;1916149;75;21034;-63
2022/07/07 05:22:58;;;;;;;9.78;4.72;;;25.80;53.70;;;;;;1916062;75;21026;-63
2022/07/07 05:25:28;;;;;;;9.25;3.90;;;25.90;53.70;;;;;;1916065;74;21006;-63
2022/07/07 05:27:57;;;;;;;8.10;3.80;;;26.00;53.40;;;;;;1916030;75;21148;-63
2022/07/07 05:30:27;;;;;;;8.53;3.75;;;26.10;52.40;;;;;;1916101;75;21026;-63
2022/07/07 05:32:56;;;;;;;9.65;3.98;;;26.10;52.40;;;;;;1916085;75;21485;-63
2022/07/07 05:35:26;;;;;;;9.55;3.83;;;26.10;52.50;;;;;;1908705;73;21124;-63
2022/07/07 05:37:55;;;;;;;6.62;3.45;;;26.20;52.60;;;;;;1905992;75;21084;-63
2022/07/07 05:40:25;;;;;;;18.00;4.12;;;26.30;52.70;;;;;;1906045;75;21074;-63
2022/07/07 05:42:54;;;;;;;15.10;3.90;;;26.50;52.10;;;;;;1905878;75;21058;-63
2022/07/07 05:45:23;;;;;;;14.28;3.98;;;26.60;52.10;;;;;;1905952;75;21146;-63
2022/07/07 05:47:53;;;;;;;9.18;3.67;;;26.70;52.10;;;;;;1906040;75;20999;-63
2022/07/07 05:50:38;;;;;;;6.72;3.40;;;26.80;51.70;;;;;;1905950;75;21076;-63
2022/07/07 05:53:07;;;;;;;11.80;4.28;;;26.80;51.40;;;;;;1905934;75;21081;-62
2022/07/07 05:55:36;;;;;;;11.45;3.58;;;26.70;51.90;;;;;;1905991;75;21035;-62
2022/07/07 05:58:06;;;;;;;7.10;2.85;;;26.80;51.80;;;;;;1906031;75;21088;-62
2022/07/07 06:00:36;;;;;;;14.13;4.12;;;26.80;51.60;;;;;;1906260;75;21092;-62
2022/07/07 06:03:05;;;;;;;8.88;3.37;;;26.90;51.90;;;;;;1905998;75;21002;-62
2022/07/07 06:05:35;;;;;;;9.28;3.72;;;27.00;51.80;;;;;;1905932;75;21054;-63
2022/07/07 06:08:04;;;;;;;8.93;3.20;;;27.10;51.50;;;;;;1906058;75;21229;-63
2022/07/07 06:10:34;;;;;;;15.95;4.20;;;27.20;51.40;;;;;;1905917;75;21050;-63
2022/07/07 06:13:04;;;;;;;12.93;4.20;;;27.30;50.90;;;;;;1905891;75;21006;-63
2022/07/07 06:15:56;;;;;;;9.75;3.30;;;27.40;50.30;;;;;;1905996;75;20999;-63
2022/07/07 06:18:26;;;;;;;6.90;2.75;;;27.40;50.00;;;;;;1858999;76;21247;-63
2022/07/07 06:20:56;;;;;;;18.62;4.22;;;27.40;50.10;;;;;;1858805;76;21062;-63
2022/07/07 06:23:25;;;;;;;15.15;3.85;;;27.50;49.70;;;;;;1858996;76;21051;-63
2022/07/07 06:25:54;;;;;;;10.00;3.58;;;27.50;49.10;;;;;;1859060;76;21047;-63
2022/07/07 06:28:24;;;;;;;9.23;4.30;;;27.60;49.30;;;;;;1858888;76;21043;-63
2022/07/07 06:30:53;;;;;;;19.12;4.92;;;27.60;49.20;;;;;;1858935;76;21112;-63
2022/07/07 06:33:22;;;;;;;8.05;3.00;;;27.70;48.90;;;;;;1858919;77;21122;-63
2022/07/07 06:35:51;;;;;;;11.90;3.67;;;27.80;48.80;;;;;;1858965;76;21133;-63
2022/07/07 06:38:21;;;;;;;7.12;3.27;;;27.90;48.00;;;;;;1858935;77;21058;-63
2022/07/07 06:40:50;;;;;;;9.53;3.35;;;27.80;48.00;;;;;;1859081;76;21059;-63
2022/07/07 06:43:20;;;;;;;14.85;3.72;;;27.90;48.30;;;;;;1859040;76;21042;-63
2022/07/07 06:45:49;;;;;;;10.40;3.40;;;28.00;48.00;;;;;;1859029;76;21109;-63
2022/07/07 06:48:18;;;;;;;8.95;3.47;;;28.10;47.90;;;;;;1858823;77;21050;-62
2022/07/07 06:50:48;;;;;;;10.15;3.12;;;28.20;47.80;;;;;;1858792;77;21038;-63
2022/07/07 06:53:17;;;;;;;12.55;3.42;;;28.20;47.80;;;;;;1858826;77;21047;-63
2022/07/07 06:55:47;;;;;;;21.73;5.17;;;28.30;48.10;;;;;;1858938;77;21089;-63
2022/07/07 06:58:16;;;;;;;11.35;3.10;;;28.40;48.10;;;;;;1858906;76;21152;-63
2022/07/07 07:00:45;;;;;;;10.25;3.50;;;28.40;47.50;;;;;;1858944;76;21330;-63
2022/07/07 07:03:14;;;;;;;13.40;3.45;;;28.40;47.40;;;;;;1858865;76;21050;-63
2022/07/07 07:05:44;;;;;;;12.07;4.10;;;28.40;47.30;;;;;;1858855;76;21038;-63
2022/07/07 07:08:13;;;;;;;14.50;3.52;;;28.40;47.20;;;;;;1858937;77;21544;-63
2022/07/07 07:10:43;;;;;;;7.50;3.30;;;28.40;47.00;;;;;;1858793;76;21129;-63
2022/07/07 07:13:12;;;;;;;12.45;4.17;;;28.40;47.20;;;;;;1858915;76;21120;-63
2022/07/07 07:15:42;;;;;;;9.45;3.65;;;28.40;47.10;;;;;;1858862;77;21046;-63
2022/07/07 07:18:11;;;;;;;10.72;3.62;;;28.50;47.10;;;;;;1857002;75;21076;-63
2022/07/07 07:20:43;;;;;;;10.10;3.22;;;28.50;47.10;;;;;;1856288;76;21059;-63
2022/07/07 07:23:12;;;;;;;9.60;3.62;;;28.50;46.90;;;;;;1856462;76;21039;-63
2022/07/07 07:25:42;;;;;;;13.75;3.80;;;28.60;47.10;;;;;;1856419;77;21015;-63
2022/07/07 07:31:06;;;;;;;14.43;4.72;;;28.80;47.20;;;;;;1906209;75;21030;-63
2022/07/07 07:33:35;;;;;;;10.30;3.72;;;28.80;47.00;;;;;;1906196;74;21002;-63
2022/07/07 07:36:07;;;;;;;8.75;3.95;;;28.90;47.30;;;;;;1906018;74;21002;-63
2022/07/07 07:38:39;;;;;;;12.53;5.80;;;28.90;47.20;;;;;;1906195;75;21100;-63
2022/07/07 07:41:10;;;;;;;9.68;3.62;;;28.90;47.20;;;;;;1906145;75;21064;-63
2022/07/07 07:43:39;;;;;;;8.85;3.60;;;29.00;47.60;;;;;;1906169;75;20982;-63
2022/07/07 07:46:09;;;;;;;14.83;4.42;;;29.10;47.50;;;;;;1906405;75;21161;-63
2022/07/07 07:48:38;;;;;;;10.80;3.50;;;29.30;47.40;;;;;;1905983;74;20986;-63
2022/07/07 07:51:08;;;;;;;10.95;3.47;;;29.40;47.20;;;;;;1873159;76;21092;-62
2022/07/07 07:53:37;;;;;;;6.50;3.10;;;29.40;47.50;;;;;;1872848;76;21068;-58
2022/07/07 07:56:07;;;;;;;9.98;3.27;;;29.50;47.30;;;;;;1873352;76;21005;-59
2022/07/07 07:58:37;;;;;;;7.92;3.55;;;29.50;47.20;;;;;;1900241;75;21090;-59
2022/07/07 08:01:06;;;;;;;13.50;3.65;;;29.50;47.30;;;;;;1902861;74;21143;-58
2022/07/07 08:03:35;;;;;;;13.95;3.65;;;29.50;46.80;;;;;;1904235;74;21002;-60
2022/07/07 08:06:05;;;;;;;28.25;4.37;;;29.60;47.10;;;;;;1897619;75;20998;-61
2022/07/07 08:08:34;;;;;;;10.55;4.65;;;29.70;47.10;;;;;;1901675;75;21050;-58
2022/07/07 08:11:03;;;;;;;10.95;3.83;;;29.70;47.00;;;;;;1900072;75;21370;-59
2022/07/07 08:13:33;;;;;;;21.55;4.33;;;29.90;47.00;;;;;;1902513;75;21080;-58
2022/07/07 08:16:12;;;;;;;10.15;3.60;;;30.00;46.90;;;;;;1903132;75;21045;-57
2022/07/07 08:18:46;;;;;;;10.08;3.85;;;30.10;46.50;;;;;;1872589;74;21234;-59
2022/07/07 08:21:15;;;;;;;5.45;3.15;;;30.20;46.30;;;;;;1830027;78;21181;-59
2022/07/07 08:23:50;;;;;;;16.80;4.00;;;30.30;46.30;;;;;;1839653;78;21133;-62
2022/07/07 08:26:21;;;;;;;15.53;4.92;;;30.40;46.00;;;;;;1875930;75;21068;-60
2022/07/07 08:28:50;;;;;;;6.85;3.90;;;30.50;46.10;;;;;;1879974;76;21140;-58
2022/07/07 08:31:20;;;;;;;17.45;3.90;;;30.50;46.00;;;;;;1889044;75;21058;-60
2022/07/07 08:33:49;;;;;;;13.60;3.87;;;30.70;46.10;;;;;;1889006;76;21089;-62
2022/07/07 08:36:18;;;;;;;12.55;5.12;;;30.70;45.80;;;;;;1889052;76;21119;-59
2022/07/07 08:38:47;;;;;;;18.70;4.50;;;30.90;45.60;;;;;;1889209;76;21175;-57
2022/07/07 08:41:17;;;;;;;11.60;3.80;;;30.90;45.30;;;;;;1889251;76;21513;-59
2022/07/07 08:43:47;;;;;;;23.40;7.33;;;30.90;45.10;;;;;;1889168;76;21147;-59
2022/07/07 08:46:16;;;;;;;11.25;4.05;;;31.10;44.70;;;;;;1889371;76;21155;-58
2022/07/07 08:48:46;;;;;;;9.53;3.77;;;31.10;44.60;;;;;;1889313;76;21034;-62
2022/07/07 08:51:16;;;;;;;11.85;4.40;;;31.20;44.70;;;;;;1889023;75;21038;-56
2022/07/07 08:53:46;;;;;;;11.03;4.10;;;31.30;44.10;;;;;;1889097;76;21070;-59
2022/07/07 08:56:16;;;;;;;10.28;3.67;;;31.30;44.30;;;;;;1889292;76;21171;-58
2022/07/07 08:58:46;;;;;;;14.07;5.53;;;31.30;44.00;;;;;;1889185;76;21159;-58
2022/07/07 09:01:16;;;;;;;14.13;6.45;;;31.40;44.40;;;;;;1889234;76;21129;-59
2022/07/07 09:03:45;;;;;;;9.28;4.12;;;31.40;44.40;;;;;;1889318;76;21030;-61
2022/07/07 09:06:15;;;;;;;7.72;4.05;;;31.40;44.70;;;;;;1889296;75;21014;-62
2022/07/07 09:08:44;;;;;;;14.73;3.92;;;31.40;44.70;;;;;;1889144;76;21038;-59
2022/07/07 09:11:14;;;;;;;14.78;4.65;;;31.40;44.80;;;;;;1889039;76;21101;-58
2022/07/07 09:13:43;;;;;;;12.23;3.30;;;31.40;44.90;;;;;;1889395;76;21058;-58
2022/07/07 09:16:17;;;;;;;7.97;3.25;;;31.40;45.40;;;;;;1889300;76;21046;-59
2022/07/07 09:18:47;;;;;;;10.40;4.05;;;31.50;45.30;;;;;;1889467;76;21042;-61
2022/07/07 09:21:31;;;;;;;9.35;3.35;;;31.50;45.30;;;;;;1889253;75;21046;-60
2022/07/07 09:24:02;;;;;;;11.12;3.58;;;31.60;45.20;;;;;;1878362;76;21077;-58
2022/07/07 09:26:43;;;;;;;8.73;3.67;;;31.70;44.80;;;;;;1917324;74;21062;-59
2022/07/07 09:29:14;;;;;;;10.75;3.27;;;31.80;45.10;;;;;;1846673;77;21027;-61
2022/07/07 09:31:55;;;;;;;11.48;4.75;;;31.80;44.90;;;;;;1905877;75;21067;-59
2022/07/07 09:34:26;;;;;;;13.35;4.00;;;31.80;44.60;;;;;;1900862;75;21096;-60
2022/07/07 09:40:02;;;;;;;11.73;4.00;;;31.90;44.60;;;;;;1904949;75;21120;-61
2022/07/07 09:42:43;;;;;;;8.75;4.00;;;31.90;43.00;;;;;;1870037;74;21077;-62
2022/07/07 09:45:20;;;;;;;10.93;4.53;;;31.80;42.80;;;;;;1868199;77;21111;-63
2022/07/07 09:47:54;;;;;;;;;;;31.80;42.90;;;;;;1870466;76;21068;-62
2022/07/07 09:50:35;;;;;;;11.48;4.03;;;31.80;42.60;;;;;;1871582;77;20231;-62
2022/07/07 09:53:09;;;;;;;15.55;3.92;;;31.80;43.00;;;;;;1870517;77;21099;-61
2022/07/07 09:55:39;;;;;;;11.45;3.70;;;31.80;43.30;;;;;;1871531;77;21029;-66
2022/07/07 09:58:08;;;;;;;11.00;4.20;;;32.00;43.40;;;;;;1871593;76;21099;-64
2022/07/07 10:00:37;;;;;;;17.07;4.97;;;32.00;43.00;;;;;;1871564;75;21171;-64
2022/07/07 10:03:07;;;;;;;9.60;4.15;;;32.10;43.20;;;;;;1871552;77;21192;-65
2022/07/07 10:05:36;;;;;;;17.60;3.80;;;32.10;43.30;;;;;;1871729;75;21088;-63
2022/07/07 10:08:06;;;;;;;8.03;3.70;;;32.20;42.90;;;;;;1871342;76;21064;-64
2022/07/07 10:10:35;;;;;;;9.73;4.05;;;32.30;43.10;;;;;;1871192;76;21127;-64
2022/07/07 10:13:05;;;;;;;4.03;3.02;;;32.30;43.00;;;;;;1870949;76;21201;-62
2022/07/07 10:15:36;;;;;;;11.00;4.37;;;32.30;42.80;;;;;;1871590;75;21058;-63
2022/07/07 10:18:06;;;;;;;14.68;3.95;;;32.40;43.10;;;;;;1871732;77;21108;-66
2022/07/07 10:20:35;;;;;;;10.70;3.95;;;32.40;43.00;;;;;;1871455;75;21099;-62
2022/07/07 10:23:05;;;;;;;10.88;3.98;;;32.60;42.60;;;;;;1871668;76;21052;-61
2022/07/07 10:25:35;;;;;;;14.10;4.42;;;32.60;42.70;;;;;;1871763;77;21025;-60
2022/07/07 10:28:05;;;;;;;13.25;4.12;;;32.60;42.80;;;;;;1870931;76;21146;-61
2022/07/07 10:30:34;;;;;;;10.53;3.95;;;32.60;43.20;;;;;;1870988;75;21096;-63
2022/07/07 10:33:05;;;;;;;7.58;3.80;;;32.60;42.90;;;;;;1871097;75;21052;-60
2022/07/07 10:35:45;;;;;;;12.68;4.58;;;32.70;42.80;;;;;;1871422;75;21029;-60
2022/07/07 10:38:16;;;;;;;26.75;10.08;;;32.70;42.60;;;;;;1871870;77;21013;-58
2022/07/07 10:40:48;;;;;;;12.05;4.05;;;32.70;42.70;;;;;;1871571;76;21013;-59
2022/07/07 10:43:34;;;;;;;11.90;4.78;;;32.80;42.70;;;;;;1898356;75;21091;-59
2022/07/07 10:46:04;;;;;;;7.80;4.35;;;32.80;42.30;;;;;;1901758;75;21087;-58
2022/07/07 10:48:52;;;;;;;14.90;4.40;;;32.80;41.60;;;;;;1902298;75;21118;-58
2022/07/07 10:51:26;;;;;;;15.60;4.28;;;32.70;41.80;;;;;;1902399;74;21176;-57
2022/07/07 10:53:58;;;;;;;18.40;4.60;;;32.70;42.20;;;;;;1902394;75;21048;-58
2022/07/07 10:56:27;;;;;;;14.65;4.40;;;32.80;42.20;;;;;;1902172;74;21044;-59
2022/07/07 10:59:01;;;;;;;10.93;4.45;;;32.80;42.60;;;;;;1902271;75;21066;-58
2022/07/07 11:01:32;;;;;;;12.43;3.52;;;32.90;42.50;;;;;;1902434;74;21021;-60
2022/07/07 11:04:01;;;;;;;20.88;4.47;;;33.00;42.10;;;;;;1902210;75;21094;-60
2022/07/07 11:06:32;;;;;;;8.08;4.12;;;32.90;42.40;;;;;;1902390;75;21037;-58
2022/07/07 11:09:03;;;;;;;7.28;2.92;;;33.00;42.20;;;;;;1898187;75;21106;-59
2022/07/07 11:11:32;;;;;;;9.75;3.37;;;33.00;41.80;;;;;;1902704;75;21036;-57
2022/07/07 11:14:10;;;;;;;9.48;3.75;;;33.00;41.30;;;;;;1903124;74;21048;-58
2022/07/07 11:16:40;;;;;;;14.10;4.05;;;32.90;41.40;;;;;;1903179;74;21036;-58
2022/07/07 11:19:10;;;;;;;11.83;3.30;;;32.90;41.20;;;;;;1903111;75;21116;-59
2022/07/07 11:21:45;;;;;;;9.08;3.87;;;32.90;40.90;;;;;;1903159;74;21057;-59
2022/07/07 11:24:22;;;;;;;7.25;3.15;;;32.90;40.60;;;;;;1903296;74;21108;-59
2022/07/07 11:27:04;;;;;;;6.55;2.98;;;32.90;40.10;;;;;;1903183;75;21025;-58
2022/07/07 11:29:34;;;;;;;6.47;2.80;;;32.90;40.60;;;;;;1903224;75;21063;-58
2022/07/07 11:32:10;;;;;;;8.40;2.90;;;32.90;40.90;;;;;;1903213;75;21037;-58
2022/07/07 11:34:44;;;;;;;5.87;3.10;;;32.90;40.80;;;;;;1903093;74;21041;-58
2022/07/07 11:37:19;;;;;;;;;;;32.90;40.50;;;;;;1905966;74;21098;-58
2022/07/07 11:39:48;;;;;;;12.90;3.45;;;32.90;39.30;;;;;;1903172;74;20127;-59
2022/07/07 11:42:18;;;;;;;6.37;2.80;;;32.90;39.70;;;;;;1898978;75;21081;-59
2022/07/07 11:44:47;;;;;;;12.58;3.58;;;32.90;39.60;;;;;;1884221;75;21061;-58
2022/07/07 11:47:17;;;;;;;7.08;2.95;;;32.90;39.50;;;;;;1884175;75;21069;-57
2022/07/07 11:49:46;;;;;;;9.20;2.40;;;33.00;39.60;;;;;;1884330;75;21531;-58
2022/07/07 11:52:16;;;;;;;7.20;2.37;;;33.10;39.40;;;;;;1884074;76;21033;-59
2022/07/07 11:54:48;;;;;;;13.80;2.85;;;33.20;39.30;;;;;;1884187;75;21037;-60
2022/07/07 11:57:32;;;;;;;5.00;2.52;;;33.20;38.60;;;;;;1884148;75;21089;-60
2022/07/07 12:00:28;;;;;;;7.83;3.12;;;33.20;38.60;;;;;;1884178;75;21009;-60
2022/07/07 12:03:00;;;;;;;7.28;3.37;;;33.20;38.70;;;;;;1884110;75;21147;-59
2022/07/07 12:05:31;;;;;;;14.00;2.95;;;33.20;38.40;;;;;;1884125;76;21505;-62
2022/07/07 12:08:06;;;;;;;10.58;2.70;;;33.20;38.60;;;;;;1884137;75;21029;-61
2022/07/07 12:10:41;;;;;;;6.50;2.92;;;33.30;38.30;;;;;;1884038;75;21099;-61
2022/07/07 12:13:13;;;;;;;4.90;2.40;;;33.30;37.80;;;;;;1883976;76;21025;-62
2022/07/07 12:15:45;;;;;;;8.70;2.65;;;33.20;37.20;;;;;;1884180;75;21067;-62
2022/07/07 12:18:17;;;;;;;13.55;3.47;;;33.20;37.60;;;;;;1883742;75;21039;-61
2022/07/07 12:20:49;;;;;;;13.38;4.33;;;33.20;37.40;;;;;;1883910;75;21104;-61
2022/07/07 12:23:18;;;;;;;4.45;2.65;;;33.20;37.60;;;;;;1882110;76;21488;-61
2022/07/07 12:25:48;;;;;;;8.95;3.22;;;33.20;37.40;;;;;;1884148;75;21033;-61
2022/07/07 12:28:17;;;;;;;7.03;2.65;;;33.20;37.60;;;;;;1884103;76;21087;-62
2022/07/07 12:30:57;;;;;;;5.33;2.40;;;33.20;37.00;;;;;;1884029;75;21068;-61
2022/07/07 12:33:37;;;;;;;7.58;2.62;;;33.20;37.00;;;;;;1884009;76;21037;-62
2022/07/07 12:36:12;;;;;;;7.45;2.70;;;33.20;37.00;;;;;;1883678;75;21068;-62
2022/07/07 12:38:59;;;;;;;4.10;2.67;;;33.10;37.40;;;;;;1884196;75;21049;-61
2022/07/07 12:41:32;;;;;;;7.55;2.35;;;33.20;37.60;;;;;;1884130;75;21017;-61
2022/07/07 12:44:28;;;;;;;7.72;2.80;;;33.20;37.20;;;;;;1883642;75;21135;-61
2022/07/07 12:46:59;;;;;;;4.75;2.45;;;33.30;37.10;;;;;;1884217;75;21049;-61
2022/07/07 12:49:28;;;;;;;8.65;2.52;;;33.40;36.50;;;;;;1884205;76;21014;-61
2022/07/07 12:51:58;;;;;;;6.58;2.40;;;33.30;36.70;;;;;;1884203;75;21496;-61
2022/07/07 12:54:28;;;;;;;7.97;2.62;;;33.30;36.60;;;;;;1884099;75;21072;-61
2022/07/07 12:57:06;;;;;;;5.47;3.58;;;33.30;36.50;;;;;;1884092;75;21080;-58
2022/07/07 12:59:40;;;;;;;8.40;2.42;;;33.30;36.60;;;;;;1884111;75;21095;-57
2022/07/07 13:02:10;;;;;;;;;;;33.40;36.30;;;;;;1886556;76;21491;-58
2022/07/07 13:04:42;;;;;;;5.92;2.65;;;33.40;35.50;;;;;;1884315;75;20136;-58
2022/07/07 13:07:11;;;;;;;7.50;2.67;;;33.40;35.70;;;;;;1884113;76;21115;-59
2022/07/07 13:09:40;;;;;;;7.70;2.42;;;33.40;35.30;;;;;;1884116;75;21095;-58